Time;durP1;ratioP1;P1;durP2;ratioP2;P2;SDS_P1;SDS_P2;PMS_P1;PMS_P2;Temp;Humidity;BMP_temperature;BMP_pressure;BME280_temperature;BME280_humidity;BME280_pressure;Samples;Min_cycle;Max_cycle;Signal;HPM_P1;HPM_P2
2022/07/07 00:00:39;;;;;;;12.27;7.70;;;;;;;24.62;58.26;99612.63;5122156;27;20061;-73
2022/07/07 00:03:04;;;;;;;10.90;7.78;;;;;;;24.32;58.28;99586.09;5122899;27;20027;-72
2022/07/07 00:05:30;;;;;;;10.20;7.97;;;;;;;24.50;58.24;99609.28;5125929;27;20016;-73
2022/07/07 00:07:55;;;;;;;13.15;8.10;;;;;;;24.40;58.71;99609.19;5123529;27;20039;-73
2022/07/07 00:10:21;;;;;;;10.20;8.35;;;;;;;24.42;58.83;99602.44;5123494;27;20065;-73
2022/07/07 00:12:46;;;;;;;9.82;8.13;;;;;;;24.11;59.18;99571.50;5103958;28;20065;-73
2022/07/07 00:15:12;;;;;;;12.32;8.45;;;;;;;24.20;59.40;99590.81;5121675;28;20023;-73
2022/07/07 00:17:37;;;;;;;15.82;9.00;;;;;;;24.32;59.42;99606.94;5124495;28;20039;-73
2022/07/07 00:20:04;;;;;;;11.75;8.65;;;;;;;24.35;59.51;99595.59;5104073;28;20083;-73
2022/07/07 00:22:30;;;;;;;11.95;8.70;;;;;;;24.27;59.90;99594.16;5123993;28;20055;-73
2022/07/07 00:24:55;;;;;;;15.55;9.20;;;;;;;24.27;59.97;99593.34;5122783;28;20028;-73
2022/07/07 00:27:21;;;;;;;11.65;9.35;;;;;;;24.11;60.60;99597.75;5105185;28;20034;-73
2022/07/07 00:29:46;;;;;;;12.90;10.30;;;;;;;24.11;60.79;99603.16;5121473;28;20030;-73
2022/07/07 00:32:12;;;;;;;14.60;11.10;;;;;;;23.83;61.51;99577.94;5124882;28;20039;-73
2022/07/07 00:34:37;;;;;;;11.75;10.55;;;;;;;23.74;62.25;99592.97;5122041;28;20031;-73
2022/07/07 00:37:03;;;;;;;12.30;10.30;;;;;;;23.72;61.94;99583.47;5125264;28;20236;-73
2022/07/07 00:39:28;;;;;;;12.32;9.90;;;;;;;23.70;62.02;99586.44;5123077;28;20107;-73
2022/07/07 00:41:54;;;;;;;12.93;9.65;;;;;;;23.53;62.28;99575.66;5121941;28;20066;-73
2022/07/07 00:44:20;;;;;;;12.02;9.73;;;;;;;23.58;62.24;99584.91;5124989;28;20277;-73
2022/07/07 00:46:47;;;;;;;12.20;9.07;;;;;;;23.79;61.54;99589.50;5122859;28;20023;-73
2022/07/07 00:49:14;;;;;;;12.63;9.15;;;;;;;23.52;61.50;99576.72;5122290;28;20058;-73
2022/07/07 00:51:42;;;;;;;15.82;7.78;;;;;;;23.48;61.37;99580.16;5121093;28;20043;-73
2022/07/07 00:54:09;;;;;;;9.60;7.38;;;;;;;23.38;61.65;99586.25;5125590;28;20313;-73
2022/07/07 00:56:35;;;;;;;8.13;6.82;;;;;;;23.50;60.67;99583.44;5122064;28;20035;-73
2022/07/07 00:59:06;;;;;;;7.43;6.07;;;;;;;23.59;59.87;99573.84;5124801;28;20034;-73
2022/07/07 01:01:34;;;;;;;7.72;5.38;;;;;;;23.81;58.89;99571.97;5122590;28;20023;-73
2022/07/07 01:04:02;;;;;;;6.95;4.78;;;;;;;23.97;57.82;99570.28;5122863;28;20031;-73
2022/07/07 01:06:29;;;;;;;7.32;4.80;;;;;;;24.03;57.42;99579.28;5123837;28;20050;-72
2022/07/07 01:08:55;;;;;;;5.20;4.65;;;;;;;23.97;57.10;99553.25;5127105;27;20077;-73
2022/07/07 01:11:20;;;;;;;6.25;4.78;;;;;;;24.21;56.87;99587.03;5106354;27;20022;-73
2022/07/07 01:13:46;;;;;;;11.48;5.20;;;;;;;24.19;56.84;99584.59;5129374;27;20034;-73
2022/07/07 01:16:11;;;;;;;7.82;5.40;;;;;;;24.16;56.81;99589.69;5125529;27;20027;-73
2022/07/07 01:18:36;;;;;;;9.93;5.63;;;;;;;24.25;56.48;99582.75;5125786;27;20325;-73
2022/07/07 01:21:05;;;;;;;9.82;6.30;;;;;;;24.26;56.35;99570.03;5129309;27;20019;-73
2022/07/07 01:23:31;;;;;;;8.18;6.40;;;;;;;24.03;56.70;99571.16;5126874;27;20043;-73
2022/07/07 01:25:57;;;;;;;8.13;5.40;;;;;;;23.83;57.47;99586.06;5125339;27;20027;-73
2022/07/07 01:28:22;;;;;;;5.60;4.90;;;;;;;23.72;57.77;99587.00;5125810;27;20035;-73
2022/07/07 01:30:48;;;;;;;8.18;5.65;;;;;;;23.43;58.62;99572.81;5124758;27;20042;-73
2022/07/07 01:33:15;;;;;;;8.98;5.35;;;;;;;23.50;58.96;99586.13;5129583;27;20043;-73
2022/07/07 01:35:41;;;;;;;6.97;5.32;;;;;;;23.42;59.10;99583.88;5124852;27;20023;-73
2022/07/07 01:38:06;;;;;;;7.90;5.15;;;;;;;23.50;58.62;99581.56;5129937;27;20360;-73
2022/07/07 01:40:32;;;;;;;6.82;4.82;;;;;;;23.42;58.79;99578.47;5125341;27;20329;-73
2022/07/07 01:42:57;;;;;;;7.38;5.40;;;;;;;23.47;58.66;99578.53;5124179;27;20036;-73
2022/07/07 01:45:22;;;;;;;7.70;5.20;;;;;;;23.51;58.64;99579.66;5126348;27;20039;-73
2022/07/07 01:47:48;;;;;;;6.45;5.50;;;;;;;23.42;58.89;99586.56;5133430;27;20031;-73
2022/07/07 01:50:14;;;;;;;6.70;5.60;;;;;;;23.54;58.47;99581.88;5123920;27;20043;-73
2022/07/07 01:52:39;;;;;;;8.30;5.80;;;;;;;23.57;58.38;99581.41;5127189;27;20042;-73
2022/07/07 01:55:06;;;;;;;9.80;6.10;;;;;;;23.54;58.26;99581.88;5107687;27;20026;-73
2022/07/07 01:57:31;;;;;;;8.93;7.47;;;;;;;23.37;58.53;99576.50;5127867;27;20043;-73
2022/07/07 01:59:57;;;;;;;10.80;7.22;;;;;;;23.30;58.98;99580.47;5107786;27;20325;-73
2022/07/07 02:02:23;;;;;;;7.75;6.70;;;;;;;23.41;58.73;99583.06;5124793;27;20165;-73
2022/07/07 02:04:48;;;;;;;8.07;7.28;;;;;;;23.39;58.57;99568.16;5105956;27;20020;-73
2022/07/07 02:07:14;;;;;;;8.90;6.75;;;;;;;23.35;58.55;99577.84;5127480;27;20320;-73
2022/07/07 02:09:39;;;;;;;7.03;6.32;;;;;;;23.45;58.14;99572.56;5125258;27;20029;-73
2022/07/07 02:12:05;;;;;;;8.60;7.03;;;;;;;23.38;58.37;99575.44;5127812;27;20048;-73
2022/07/07 02:14:30;;;;;;;9.25;6.57;;;;;;;23.41;58.21;99574.13;5123851;27;20040;-73
2022/07/07 02:16:56;;;;;;;8.38;6.60;;;;;;;23.56;57.74;99583.28;5125317;27;20352;-73
2022/07/07 02:19:22;;;;;;;8.85;6.50;;;;;;;23.33;58.24;99574.56;5124904;27;20210;-73
2022/07/07 02:21:47;;;;;;;7.22;6.53;;;;;;;23.35;58.29;99580.53;5124090;27;20031;-73
2022/07/07 02:24:13;;;;;;;7.68;6.25;;;;;;;23.30;58.62;99586.69;5123727;27;20243;-73
2022/07/07 02:26:38;;;;;;;8.13;7.25;;;;;;;23.12;58.86;99560.78;5127992;27;20224;-73
2022/07/07 02:29:04;;;;;;;9.82;7.18;;;;;;;23.21;58.90;99591.69;5121776;27;20424;-73
2022/07/07 02:31:30;;;;;;;7.75;6.95;;;;;;;23.14;59.34;99590.22;5126521;27;20095;-73
2022/07/07 02:33:56;;;;;;;8.75;6.88;;;;;;;23.29;59.07;99600.44;5124653;27;20039;-73
2022/07/07 02:36:21;;;;;;;11.13;6.40;;;;;;;23.47;58.53;99600.97;5124235;27;20042;-73
2022/07/07 02:38:48;;;;;;;7.63;6.18;;;;;;;23.41;58.76;99601.16;5123428;27;20024;-73
2022/07/07 02:41:13;;;;;;;8.77;5.88;;;;;;;23.51;58.49;99601.28;5124906;27;20030;-73
2022/07/07 02:43:39;;;;;;;10.88;5.80;;;;;;;23.52;58.36;99608.31;5123301;27;20043;-73
2022/07/07 02:46:05;;;;;;;10.27;5.93;;;;;;;23.34;59.05;99603.22;5130321;27;20030;-73
2022/07/07 02:48:30;;;;;;;9.52;6.25;;;;;;;23.54;58.53;99603.50;5125116;27;20214;-73
2022/07/07 02:50:56;;;;;;;10.20;6.55;;;;;;;23.55;58.54;99605.97;5124763;27;20056;-73
2022/07/07 02:53:21;;;;;;;7.05;5.93;;;;;;;23.39;59.09;99600.59;5125701;27;20027;-73
2022/07/07 02:55:47;;;;;;;7.90;5.68;;;;;;;23.31;59.56;99603.72;5124271;27;20537;-73
2022/07/07 02:58:20;;;;;;;8.13;6.07;;;;;;;23.34;59.45;99601.31;5107212;27;20047;-73
2022/07/07 03:00:47;;;;;;;9.98;6.32;;;;;;;23.15;60.27;99613.47;5124113;27;20079;-73
2022/07/07 03:03:13;;;;;;;6.95;6.13;;;;;;;23.25;60.14;99614.44;5124332;27;20166;-73
2022/07/07 03:05:38;;;;;;;9.57;6.40;;;;;;;23.27;60.22;99606.09;5122604;27;20035;-73
2022/07/07 03:08:04;;;;;;;10.25;7.68;;;;;;;23.20;60.60;99608.97;5124969;27;20354;-73
2022/07/07 03:10:30;;;;;;;11.07;9.38;;;;;;;23.07;61.19;99605.78;5123665;27;20285;-73
2022/07/07 03:12:55;;;;;;;12.68;9.82;;;;;;;23.17;60.89;99606.75;5126145;27;20040;-73
2022/07/07 03:15:21;;;;;;;14.20;10.65;;;;;;;23.16;61.06;99607.81;5124561;27;20343;-73
2022/07/07 03:17:47;;;;;;;13.68;10.85;;;;;;;23.25;60.73;99605.53;5122627;27;20040;-73
2022/07/07 03:20:15;;;;;;;13.02;10.32;;;;;;;23.25;60.67;99600.94;5123471;27;20102;-73
2022/07/07 03:22:41;;;;;;;19.38;11.27;;;;;;;23.28;60.94;99605.03;5093009;27;20315;-73
2022/07/07 03:25:08;;;;;;;15.68;10.55;;;;;;;23.41;60.46;99603.84;5128183;27;20233;-73
2022/07/07 03:27:35;;;;;;;16.70;9.30;;;;;;;23.25;60.67;99592.84;5140647;27;20046;-73
2022/07/07 03:30:01;;;;;;;16.50;7.78;;;;;;;23.01;61.67;99593.28;5141506;27;20043;-73
2022/07/07 03:32:27;;;;;;;8.98;7.78;;;;;;;23.10;61.53;99594.50;5143454;27;20197;-73
2022/07/07 03:34:52;;;;;;;9.77;7.45;;;;;;;23.12;61.59;99595.06;5139453;27;20094;-73
2022/07/07 03:37:18;;;;;;;9.40;7.40;;;;;;;23.03;61.74;99599.25;5143461;27;20033;-73
2022/07/07 03:39:43;;;;;;;11.02;7.38;;;;;;;23.17;61.54;99590.56;5143141;27;20033;-73
2022/07/07 03:42:09;;;;;;;13.07;7.00;;;;;;;23.10;61.23;99589.91;5141261;27;20060;-72
2022/07/07 03:44:35;;;;;;;12.85;7.13;;;;;;;23.31;60.86;99596.44;5143279;27;20063;-73
2022/07/07 03:47:00;;;;;;;7.90;7.10;;;;;;;23.31;61.09;99599.13;5143190;27;20102;-73
2022/07/07 03:49:26;;;;;;;7.90;6.95;;;;;;;23.29;60.79;99598.56;5143450;27;20244;-73
2022/07/07 03:51:51;;;;;;;10.57;6.95;;;;;;;23.45;60.10;99605.81;5142814;27;20030;-73
2022/07/07 03:54:17;;;;;;;10.82;7.15;;;;;;;23.56;59.69;99604.09;5143490;27;20027;-73
2022/07/07 03:56:43;;;;;;;6.93;6.22;;;;;;;23.66;59.36;99598.00;5142750;27;20224;-73
2022/07/07 03:59:08;;;;;;;6.40;5.78;;;;;;;23.74;59.03;99600.25;5142223;27;20046;-73
2022/07/07 04:01:34;;;;;;;6.28;5.68;;;;;;;23.94;58.42;99595.13;5139104;27;20043;-73
2022/07/07 04:03:59;;;;;;;8.82;5.78;;;;;;;23.97;58.14;99604.63;5143238;27;20042;-73
2022/07/07 04:06:25;;;;;;;7.88;4.90;;;;;;;23.97;57.67;99599.22;5142945;27;20034;-74
2022/07/07 04:08:50;;;;;;;8.52;4.95;;;;;;;24.14;57.46;99606.19;5124464;27;20442;-73
2022/07/07 04:11:16;;;;;;;6.40;4.70;;;;;;;24.24;56.58;99600.06;5142918;27;20026;-73
2022/07/07 04:13:42;;;;;;;6.45;5.35;;;;;;;24.28;56.45;99605.81;5142745;27;20061;-73
2022/07/07 04:16:08;;;;;;;6.50;4.57;;;;;;;24.28;56.01;99598.50;5139842;27;20023;-73
2022/07/07 04:18:34;;;;;;;5.15;4.57;;;;;;;24.38;55.87;99614.03;5129094;27;20096;-73
2022/07/07 04:20:59;;;;;;;7.43;4.53;;;;;;;24.49;55.46;99607.63;5121711;28;20058;-73
2022/07/07 04:23:25;;;;;;;7.95;4.68;;;;;;;24.66;55.00;99607.53;5123005;28;20044;-73
2022/07/07 04:25:50;;;;;;;18.30;4.90;;;;;;;24.93;54.17;99612.88;5125670;28;20027;-73
2022/07/07 04:28:16;;;;;;;7.18;4.53;;;;;;;24.96;53.96;99615.91;5123102;28;20038;-73
2022/07/07 04:30:41;;;;;;;8.85;4.53;;;;;;;24.82;54.02;99607.41;5122629;28;20358;-73
2022/07/07 04:33:07;;;;;;;13.90;4.82;;;;;;;25.06;54.02;99616.03;5121833;28;20358;-73
2022/07/07 04:35:32;;;;;;;13.95;4.90;;;;;;;25.35;53.37;99616.50;5122428;28;20024;-73
2022/07/07 04:37:58;;;;;;;18.13;4.57;;;;;;;25.16;53.08;99609.88;5132224;28;20035;-73
2022/07/07 04:40:23;;;;;;;8.57;4.70;;;;;;;25.29;53.13;99622.16;5124324;28;20100;-73
2022/07/07 04:42:49;;;;;;;11.82;4.60;;;;;;;25.24;53.47;99605.84;5111783;27;20046;-73
2022/07/07 04:45:14;;;;;;;10.35;4.30;;;;;;;25.38;53.11;99618.69;5128119;27;20228;-73
2022/07/07 04:47:41;;;;;;;10.90;4.68;;;;;;;25.46;52.79;99618.19;5131886;27;20077;-73
2022/07/07 04:50:11;;;;;;;6.60;4.00;;;;;;;25.41;52.98;99603.78;5126964;27;20027;-73
2022/07/07 04:52:38;;;;;;;14.18;4.38;;;;;;;25.63;52.52;99607.16;5131751;27;20352;-73
2022/07/07 04:55:04;;;;;;;20.42;4.68;;;;;;;25.74;52.02;99617.00;5127156;27;20089;-73
2022/07/07 04:57:30;;;;;;;15.05;4.90;;;;;;;25.92;52.00;99609.47;5111827;27;20111;-73
2022/07/07 04:59:56;;;;;;;7.40;3.90;;;;;;;26.01;51.91;99611.44;5126998;27;20031;-73
2022/07/07 05:02:21;;;;;;;10.02;4.43;;;;;;;26.12;51.16;99615.00;5130273;27;20245;-73
2022/07/07 05:04:49;;;;;;;10.05;4.13;;;;;;;26.28;51.26;99616.69;5125602;27;20050;-73
2022/07/07 05:07:14;;;;;;;7.97;3.95;;;;;;;26.47;50.55;99603.44;5126881;27;20032;-73
2022/07/07 05:09:40;;;;;;;6.13;3.80;;;;;;;26.84;49.78;99603.19;5126034;27;20095;-73
2022/07/07 05:12:06;;;;;;;8.18;4.25;;;;;;;27.06;49.15;99602.97;5127990;27;20035;-73
2022/07/07 05:14:31;;;;;;;5.45;3.85;;;;;;;26.97;49.08;99604.53;5108328;27;20027;-73
2022/07/07 05:16:56;;;;;;;4.30;3.70;;;;;;;27.07;48.54;99596.44;5129399;27;20043;-73
2022/07/07 05:19:22;;;;;;;10.23;3.90;;;;;;;27.11;47.84;99602.13;5126900;27;20093;-73
2022/07/07 05:21:48;;;;;;;9.23;3.85;;;;;;;27.21;47.54;99602.13;5125659;27;20058;-73
2022/07/07 05:24:14;;;;;;;6.30;3.95;;;;;;;27.30;47.91;99595.03;5126886;27;20055;-73
2022/07/07 05:26:40;;;;;;;6.03;4.25;;;;;;;27.39;48.01;99603.44;5108828;27;20023;-73
2022/07/07 05:29:06;;;;;;;12.85;4.20;;;;;;;27.69;47.19;99614.25;5129424;27;20023;-73
2022/07/07 05:31:31;;;;;;;6.63;3.65;;;;;;;27.84;47.04;99605.22;5126690;27;20285;-73
2022/07/07 05:33:57;;;;;;;7.63;3.75;;;;;;;27.86;46.52;99603.03;5128832;27;20085;-73
2022/07/07 05:36:22;;;;;;;5.13;3.60;;;;;;;27.83;46.68;99604.41;5124387;27;20031;-73
2022/07/07 05:38:48;;;;;;;9.85;3.88;;;;;;;27.87;46.08;99608.19;5127196;27;20033;-73
2022/07/07 05:41:14;;;;;;;4.65;3.42;;;;;;;27.81;46.39;99614.75;5124652;27;20047;-73
2022/07/07 05:43:39;;;;;;;7.97;3.90;;;;;;;27.76;46.47;99616.69;5110541;27;20060;-73
2022/07/07 05:46:05;;;;;;;5.30;3.28;;;;;;;28.10;45.99;99617.63;5124840;27;20042;-73
2022/07/07 05:48:30;;;;;;;6.15;3.17;;;;;;;28.26;46.14;99618.41;5129908;27;20244;-73
2022/07/07 05:50:56;;;;;;;7.50;3.47;;;;;;;28.46;45.46;99606.56;5124504;27;20329;-74
2022/07/07 05:53:21;;;;;;;7.40;3.33;;;;;;;28.52;45.33;99608.97;5105931;27;20393;-73
2022/07/07 05:55:47;;;;;;;7.47;3.20;;;;;;;28.48;44.53;99609.81;5125351;27;20300;-73
2022/07/07 05:58:12;;;;;;;8.02;3.20;;;;;;;28.36;44.28;99615.63;5125949;27;20054;-73
2022/07/07 06:00:38;;;;;;;7.63;3.35;;;;;;;28.56;44.14;99622.84;5128852;27;20321;-73
2022/07/07 06:03:03;;;;;;;3.60;2.85;;;;;;;28.66;43.54;99621.94;5123978;27;20036;-73
2022/07/07 06:05:29;;;;;;;8.23;3.50;;;;;;;28.69;43.28;99613.19;5107608;27;20039;-73
2022/07/07 06:07:55;;;;;;;11.23;3.20;;;;;;;29.03;42.60;99621.41;5124315;27;20031;-73
2022/07/07 06:10:21;;;;;;;6.80;2.83;;;;;;;28.43;43.96;99616.09;5124782;27;20107;-73
2022/07/07 06:12:46;;;;;;;4.82;3.20;;;;;;;28.97;43.49;99628.81;5125269;27;20038;-73
2022/07/07 06:15:12;;;;;;;4.70;3.17;;;;;;;29.23;42.65;99627.50;5105881;27;20034;-73
2022/07/07 06:17:37;;;;;;;6.50;2.85;;;;;;;29.44;41.49;99639.03;5127941;27;20270;-73
2022/07/07 06:20:03;;;;;;;4.10;2.60;;;;;;;29.78;41.34;99633.47;5123856;27;20304;-73
2022/07/07 06:22:29;;;;;;;5.82;2.90;;;;;;;29.87;40.60;99636.38;5127662;27;20063;-73
2022/07/07 06:24:55;;;;;;;3.08;2.35;;;;;;;29.97;40.07;99638.16;5123500;27;20058;-73
2022/07/07 06:27:21;;;;;;;3.88;2.72;;;;;;;30.05;39.23;99629.34;5124940;27;20035;-73
2022/07/07 06:29:47;;;;;;;2.63;2.42;;;;;;;29.95;40.10;99634.91;5125927;27;20352;-73
2022/07/07 06:32:15;;;;;;;6.32;2.67;;;;;;;30.08;39.40;99635.03;5127231;27;20015;-73
2022/07/07 06:34:41;;;;;;;8.05;2.72;;;;;;;30.07;39.50;99625.22;5124868;27;20046;-73
2022/07/07 06:37:06;;;;;;;4.85;2.58;;;;;;;30.07;39.38;99633.41;5129668;27;20031;-73
2022/07/07 06:39:32;;;;;;;5.03;2.70;;;;;;;30.29;38.76;99621.94;5124962;27;20365;-73
2022/07/07 06:41:57;;;;;;;3.55;2.50;;;;;;;30.29;38.46;99616.50;5124390;27;20037;-73
2022/07/07 06:44:22;;;;;;;3.97;2.47;;;;;;;30.37;38.37;99625.94;5124688;27;20324;-73
2022/07/07 06:46:48;;;;;;;7.97;2.63;;;;;;;30.38;38.03;99622.91;5124720;27;20061;-73
2022/07/07 06:49:13;;;;;;;6.32;3.00;;;;;;;30.77;37.81;99625.34;5125632;27;20348;-73
2022/07/07 06:51:39;;;;;;;3.92;2.60;;;;;;;30.60;37.43;99627.81;5126372;27;20023;-73
2022/07/07 06:54:05;;;;;;;2.78;2.58;;;;;;;30.83;37.31;99623.34;5124883;27;20039;-74
2022/07/07 06:56:30;;;;;;;6.75;2.55;;;;;;;30.86;36.61;99619.19;5125917;27;20042;-74
2022/07/07 06:58:56;;;;;;;6.93;2.85;;;;;;;30.89;37.31;99605.75;5125002;27;20035;-73
2022/07/07 07:01:21;;;;;;;13.18;2.90;;;;;;;31.19;37.07;99611.81;5127562;27;20035;-73
2022/07/07 07:03:47;;;;;;;8.45;2.30;;;;;;;31.36;36.26;99612.88;5126394;27;20032;-73
2022/07/07 07:06:14;;;;;;;3.85;2.75;;;;;;;31.47;35.91;99613.50;5123972;27;20348;-73
2022/07/07 07:08:39;;;;;;;9.95;2.53;;;;;;;31.52;35.84;99604.38;5127546;27;20042;-73
2022/07/07 07:11:05;;;;;;;7.93;2.53;;;;;;;31.50;35.67;99612.06;5124280;27;20035;-73
2022/07/07 07:13:31;;;;;;;6.60;2.25;;;;;;;31.47;35.99;99609.94;5123894;27;20035;-73
2022/07/07 07:15:56;;;;;;;5.97;2.38;;;;;;;31.64;35.09;99615.63;5124829;27;20061;-73
2022/07/07 07:18:22;;;;;;;10.15;2.45;;;;;;;31.63;35.08;99606.59;5108108;28;20336;-73
2022/07/07 07:20:47;;;;;;;4.68;2.30;;;;;;;31.68;34.80;99609.25;5122065;27;20042;-73
2022/07/07 07:23:14;;;;;;;4.82;2.60;;;;;;;31.61;34.89;99614.31;5124301;27;20363;-72
2022/07/07 07:25:39;;;;;;;6.35;2.80;;;;;;;31.69;34.85;99621.84;5124608;27;20039;-73
2022/07/07 07:28:04;;;;;;;6.65;2.85;;;;;;;31.63;35.46;99612.06;5122461;27;20035;-73
2022/07/07 07:30:31;;;;;;;6.15;2.47;;;;;;;31.95;34.82;99613.91;5121344;27;20040;-73
2022/07/07 07:32:56;;;;;;;9.25;2.92;;;;;;;32.39;34.31;99615.19;5122777;27;20091;-73
2022/07/07 07:35:22;;;;;;;4.53;2.33;;;;;;;32.36;33.77;99616.63;5125350;27;20053;-73
2022/07/07 07:37:47;;;;;;;3.70;2.67;;;;;;;32.33;33.41;99611.75;5124609;27;20035;-73
2022/07/07 07:40:13;;;;;;;4.22;2.42;;;;;;;32.28;33.27;99614.59;5125940;27;20032;-72
2022/07/07 07:42:39;;;;;;;4.07;2.20;;;;;;;32.38;33.35;99613.56;5124335;27;20038;-73
2022/07/07 07:45:12;;;;;;;3.55;2.80;;;;;;;32.47;33.16;99608.16;5108365;27;20103;-73
2022/07/07 07:47:46;;;;;;;8.82;2.78;;;;;;;32.75;33.15;99615.16;5122424;27;20042;-72
2022/07/07 07:50:12;;;;;;;;;;;;;;;32.36;32.79;99611.13;5122618;27;20038;-72
2022/07/07 07:52:39;;;;;;;4.45;2.47;;;;;;;32.39;33.21;99615.19;5123964;27;19930;-72
2022/07/07 07:55:09;;;;;;;6.38;2.67;;;;;;;32.60;32.88;99599.88;5125301;27;20072;-73
2022/07/07 07:57:36;;;;;;;5.00;2.30;;;;;;;32.80;32.21;99614.25;5123007;27;20103;-73
2022/07/07 08:00:03;;;;;;;3.67;2.75;;;;;;;32.59;33.33;99608.41;5125425;27;20362;-73
2022/07/07 08:02:28;;;;;;;6.38;2.40;;;;;;;32.90;32.15;99603.00;5127139;27;20242;-73
2022/07/07 08:04:54;;;;;;;6.00;2.80;;;;;;;32.83;31.79;99613.63;5122141;27;20047;-73
2022/07/07 08:07:19;;;;;;;3.63;3.03;;;;;;;32.90;31.48;99616.72;5123718;27;20033;-73
2022/07/07 08:09:45;;;;;;;6.68;2.78;;;;;;;33.10;30.88;99610.72;5125982;27;20031;-72
2022/07/07 08:12:11;;;;;;;3.38;2.72;;;;;;;33.04;31.51;99606.50;5123006;27;20032;-73
2022/07/07 08:14:37;;;;;;;3.75;2.72;;;;;;;33.13;30.72;99604.59;5126782;27;20046;-73
2022/07/07 08:17:03;;;;;;;5.50;2.70;;;;;;;33.04;31.33;99606.50;5124662;27;20337;-73
2022/07/07 08:19:28;;;;;;;3.13;2.40;;;;;;;33.25;30.86;99599.34;5125131;28;20027;-72
2022/07/07 08:21:54;;;;;;;3.15;2.55;;;;;;;33.22;31.41;99594.47;5126256;28;20085;-73
2022/07/07 08:24:19;;;;;;;5.30;2.55;;;;;;;33.36;31.00;99610.09;5125068;27;20229;-73
2022/07/07 08:26:45;;;;;;;6.25;2.80;;;;;;;33.50;30.34;99600.63;5122832;28;20358;-73
2022/07/07 08:29:10;;;;;;;3.67;2.70;;;;;;;33.62;31.01;99608.25;5125311;28;20054;-72
2022/07/07 08:31:35;;;;;;;3.72;2.65;;;;;;;33.42;30.39;99601.41;5123594;28;20066;-72
2022/07/07 08:34:01;;;;;;;4.10;2.45;;;;;;;33.40;30.79;99600.91;5124363;28;20043;-73
2022/07/07 08:36:27;;;;;;;5.95;2.70;;;;;;;33.41;30.99;99605.28;5126115;28;20046;-73
2022/07/07 08:38:52;;;;;;;4.68;2.60;;;;;;;33.78;30.41;99600.38;5122808;28;20142;-73
2022/07/07 08:41:18;;;;;;;3.50;2.70;;;;;;;33.70;30.28;99592.94;5128199;28;20060;-73
2022/07/07 08:43:45;;;;;;;6.40;2.65;;;;;;;33.61;30.28;99601.16;5121505;28;20020;-73
2022/07/07 08:46:11;;;;;;;5.78;3.00;;;;;;;33.65;30.08;99591.16;5123238;28;20030;-72
2022/07/07 08:48:36;;;;;;;5.90;2.60;;;;;;;33.86;29.77;99592.19;5122077;28;20043;-73
2022/07/07 08:51:02;;;;;;;6.55;2.60;;;;;;;34.02;29.96;99599.97;5120242;28;20058;-73
2022/07/07 08:53:34;;;;;;;4.03;2.65;;;;;;;34.16;30.04;99595.97;5124729;28;20435;-73
2022/07/07 08:56:08;;;;;;;13.90;2.88;;;;;;;34.23;29.26;99596.28;5124862;28;20106;-73
2022/07/07 08:58:36;;;;;;;2.67;2.20;;;;;;;34.46;29.80;99593.44;5126489;28;20403;-73
2022/07/07 09:01:06;;;;;;;3.17;2.60;;;;;;;34.35;28.80;99592.16;5123826;28;20301;-73
2022/07/07 09:03:32;;;;;;;6.18;2.90;;;;;;;34.26;29.03;99595.63;5122157;28;20035;-73
2022/07/07 09:05:59;;;;;;;4.78;2.58;;;;;;;34.30;29.37;99584.00;5126268;28;20023;-73
2022/07/07 09:08:25;;;;;;;4.60;2.78;;;;;;;33.95;29.74;99587.53;5123580;28;20333;-73
2022/07/07 09:10:52;;;;;;;3.47;2.70;;;;;;;34.06;29.68;99588.03;5123535;28;20030;-73
2022/07/07 09:13:28;;;;;;;3.13;2.70;;;;;;;34.29;29.71;99591.44;5125471;28;20067;-73
2022/07/07 09:16:12;;;;;;;9.65;2.90;;;;;;;34.13;28.87;99593.84;5122733;28;20131;-73
2022/07/07 09:18:46;;;;;;;3.35;2.60;;;;;;;34.23;29.27;99582.53;5121311;28;20053;-73
2022/07/07 09:21:26;;;;;;;4.22;2.60;;;;;;;34.34;28.81;99576.78;5121982;28;20103;-73
2022/07/07 09:23:57;;;;;;;3.55;2.60;;;;;;;34.19;29.06;99581.56;5125264;28;20108;-73
2022/07/07 09:26:41;;;;;;;4.47;2.40;;;;;;;34.16;29.63;99573.97;5123754;28;20031;-73
2022/07/07 09:29:27;;;;;;;4.18;2.95;;;;;;;34.10;29.59;99578.00;5125031;27;20038;-73
2022/07/07 09:32:01;;;;;;;6.00;2.60;;;;;;;34.20;29.00;99572.19;5127604;27;20030;-73
2022/07/07 09:34:32;;;;;;;3.42;2.60;;;;;;;33.99;28.89;99576.72;5126734;27;20036;-73
2022/07/07 09:39:57;;;;;;;3.53;2.65;;;;;;;33.87;30.27;99562.78;5124337;27;20205;-72
2022/07/07 09:42:33;;;;;;;6.18;3.10;;;;;;;33.57;29.64;99559.00;5126944;27;20026;-73
2022/07/07 09:45:01;;;;;;;4.43;2.90;;;;;;;33.70;30.27;99565.47;5127640;27;20149;-73
2022/07/07 09:47:27;;;;;;;11.80;2.65;;;;;;;33.70;29.65;99560.00;5125595;27;20038;-73
2022/07/07 09:50:08;;;;;;;5.30;2.60;;;;;;;33.69;30.06;99567.41;5127952;27;20023;-73
2022/07/07 09:52:36;;;;;;;3.60;2.40;;;;;;;33.62;30.23;99556.91;5127649;27;20051;-73
2022/07/07 09:55:04;;;;;;;8.25;2.92;;;;;;;33.23;29.74;99554.94;5125498;27;20054;-73
2022/07/07 09:57:30;;;;;;;3.28;2.72;;;;;;;33.01;31.28;99549.50;5129495;27;20123;-72
2022/07/07 09:59:55;;;;;;;4.25;3.00;;;;;;;33.08;30.05;99538.09;5126289;27;20220;-73
2022/07/07 10:02:24;;;;;;;3.40;2.88;;;;;;;32.96;31.46;99538.69;5125990;27;20212;-73
2022/07/07 10:04:54;;;;;;;5.07;2.67;;;;;;;32.85;31.25;99538.13;5111385;27;20035;-74
2022/07/07 10:07:22;;;;;;;3.08;2.78;;;;;;;32.71;30.85;99540.13;5124654;27;20054;-72
2022/07/07 10:10:08;;;;;;;4.30;2.90;;;;;;;32.98;31.18;99545.47;5128176;27;20031;-73
2022/07/07 10:12:41;;;;;;;3.40;3.03;;;;;;;33.18;30.44;99552.34;5108882;27;20027;-73
2022/07/07 10:15:13;;;;;;;6.25;2.70;;;;;;;33.29;29.88;99545.50;5128247;27;20028;-73
2022/07/07 10:17:40;;;;;;;7.47;2.97;;;;;;;33.19;30.59;99550.41;5124606;27;20092;-73
2022/07/07 10:20:07;;;;;;;5.57;3.05;;;;;;;33.31;30.45;99546.00;5126656;27;20285;-73
2022/07/07 10:22:35;;;;;;;6.70;2.70;;;;;;;33.04;29.17;99537.09;5124290;27;20031;-73
2022/07/07 10:25:02;;;;;;;3.20;2.60;;;;;;;32.82;29.91;99536.03;5125612;27;20306;-73
2022/07/07 10:27:29;;;;;;;3.28;2.95;;;;;;;32.98;30.89;99531.75;5132053;27;20038;-73
2022/07/07 10:29:55;;;;;;;3.30;2.72;;;;;;;32.84;30.27;99525.56;5141851;27;20046;-73
2022/07/07 10:32:30;;;;;;;6.65;2.92;;;;;;;32.81;30.73;99528.91;5143910;27;20027;-73
2022/07/07 10:34:58;;;;;;;3.58;2.60;;;;;;;32.94;30.37;99521.72;5137200;27;20180;-73
2022/07/07 10:37:26;;;;;;;5.30;2.47;;;;;;;32.87;30.97;99521.38;5143524;27;20031;-73
2022/07/07 10:39:55;;;;;;;4.47;2.65;;;;;;;33.04;30.74;99518.72;5142756;27;20027;-73
2022/07/07 10:42:43;;;;;;;11.75;3.47;;;;;;;32.83;29.81;99515.72;5119783;27;20084;-73
2022/07/07 10:45:10;;;;;;;4.60;2.70;;;;;;;32.57;29.84;99514.72;5133800;27;20536;-73
2022/07/07 10:47:36;;;;;;;2.97;2.78;;;;;;;32.86;28.73;99506.84;5143335;27;20328;-73
2022/07/07 10:50:20;;;;;;;3.92;2.90;;;;;;;32.85;30.21;99513.47;5135796;27;20031;-73
2022/07/07 10:52:46;;;;;;;3.38;2.80;;;;;;;32.96;30.96;99514.81;5137191;27;20079;-73
2022/07/07 10:55:11;;;;;;;3.10;2.83;;;;;;;33.16;31.03;99510.69;5137504;27;20023;-73
2022/07/07 10:57:45;;;;;;;4.15;2.85;;;;;;;32.98;29.91;99518.03;5142792;27;20041;-73
2022/07/07 11:00:15;;;;;;;4.03;2.92;;;;;;;32.97;29.31;99519.16;5142381;27;20038;-72
2022/07/07 11:02:50;;;;;;;7.70;3.15;;;;;;;32.89;30.18;99513.63;5139783;27;20065;-73
2022/07/07 11:05:15;;;;;;;5.03;2.80;;;;;;;32.99;29.87;99514.16;5137208;27;20224;-73
2022/07/07 11:07:56;;;;;;;3.92;2.60;;;;;;;33.00;30.34;99509.50;5142152;27;20106;-73
2022/07/07 11:10:23;;;;;;;3.47;2.80;;;;;;;33.21;29.39;99509.75;5133535;27;20579;-73
2022/07/07 11:12:53;;;;;;;4.43;2.80;;;;;;;33.30;29.45;99502.41;5137129;27;20135;-73
2022/07/07 11:15:21;;;;;;;4.35;2.75;;;;;;;33.14;28.30;99507.44;5143002;27;20320;-73
2022/07/07 11:18:07;;;;;;;6.95;2.90;;;;;;;33.19;29.41;99506.50;5137252;27;20047;-73
2022/07/07 11:20:32;;;;;;;3.55;2.97;;;;;;;33.05;29.72;99503.88;5142618;27;20026;-74
2022/07/07 11:23:11;;;;;;;3.20;2.53;;;;;;;33.22;30.45;99501.19;5123377;27;20320;-73
2022/07/07 11:25:38;;;;;;;6.10;2.67;;;;;;;33.15;29.93;99506.31;5140977;27;20053;-74
2022/07/07 11:28:05;;;;;;;4.13;2.80;;;;;;;33.06;30.24;99502.75;5142533;27;20039;-73
2022/07/07 11:30:31;;;;;;;4.75;2.92;;;;;;;32.67;29.96;99498.00;5139517;27;20088;-73
2022/07/07 11:32:58;;;;;;;6.70;3.28;;;;;;;32.70;31.53;99503.69;5141467;27;20035;-73